Terminal Aerodrome Forecast
Issued by NWS

Home | Current Version | Previous Version | Text Only | Print | Product List | Glossary On
Versions: 1 2 3 4 5 6 7 8 9 10 11 12 13 14 15 16 17 18 19 20 21 22 23 24 25 26 27 28 29 30
000
FTUS41 KBUF 271600 AAC
TAFIAG
TAF AMD
KIAG 271621Z 2716/2812 04009KT 4SM -SN BKN020 BKN080
      TEMPO 2716/2718 6SM -SN
     FM271800 03012KT P6SM -SN BKN025 OVC080
     FM272300 35010KT P6SM SCT090
     FM280500 32006KT P6SM FEW250
     FM281000 28005KT P6SM FEW250=

USA.gov is the U.S. government's official web portal to all federal, state and local government web resources and services.